Time;durP1;ratioP1;P1;durP2;ratioP2;P2;SDS_P1;SDS_P2;PMS_P1;PMS_P2;Temp;Humidity;BMP_temperature;BMP_pressure;BME280_temperature;BME280_humidity;BME280_pressure;Samples;Min_cycle;Max_cycle;Signal;HPM_P1;HPM_P2
2022/12/29 00:00:08;;;;;;;15.27;8.80;;;;;;;;;;5091349;28;20204;-80
2022/12/29 00:02:35;;;;;;;7.33;6.20;;;;;;;;;;5091982;28;20219;-80
2022/12/29 00:05:03;;;;;;;10.37;8.53;;;;;;;;;;5089759;28;20618;-80
2022/12/29 00:07:30;;;;;;;10.27;8.67;;;;;;;;;;5061234;28;20198;-81
2022/12/29 00:09:57;;;;;;;9.00;7.47;;;;;;;;;;5091305;28;20203;-82
2022/12/29 00:12:24;;;;;;;11.30;9.20;;;;;;;;;;5098765;28;20257;-81
2022/12/29 00:17:36;;;;;;;11.67;9.00;;;;;;;;;;5091168;28;20222;-81
2022/12/29 00:36:45;;;;;;;15.73;11.40;;;;;;;;;;5090889;28;20288;-81
2022/12/29 00:45:03;;;;;;;23.27;10.90;;;;;;;;;;5102925;28;20202;-81
2022/12/29 00:47:31;;;;;;;15.03;10.57;;;;;;;;;;5099333;28;20639;-81
2022/12/29 00:49:57;;;;;;;15.23;9.43;;;;;;;;;;5093086;28;20249;-81
2022/12/29 00:52:23;;;;;;;8.97;6.97;;;;;;;;;;5061307;28;20208;-81
2022/12/29 00:54:50;;;;;;;6.47;4.87;;;;;;;;;;5106476;28;20207;-81
2022/12/29 00:57:17;;;;;;;9.13;5.37;;;;;;;;;;5101462;28;20273;-81
2022/12/29 00:59:45;;;;;;;6.53;4.93;;;;;;;;;;5079321;28;20208;-81
2022/12/29 01:02:12;;;;;;;5.33;4.83;;;;;;;;;;5111318;28;20222;-81
2022/12/29 01:04:40;;;;;;;136.20;72.77;;;;;;;;;;5108754;28;20480;-81
2022/12/29 01:07:06;;;;;;;44.63;27.10;;;;;;;;;;5101558;28;20207;-81
2022/12/29 01:12:40;;;;;;;14.23;9.93;;;;;;;;;;5079235;28;20208;-80
2022/12/29 01:15:05;;;;;;;15.60;9.70;;;;;;;;;;5077285;28;20686;-81
2022/12/29 01:17:32;;;;;;;18.27;10.40;;;;;;;;;;5088808;28;20254;-81
2022/12/29 01:20:01;;;;;;;11.17;9.23;;;;;;;;;;5085923;28;20744;-81
2022/12/29 01:22:27;;;;;;;12.50;9.77;;;;;;;;;;5110751;28;20204;-81
2022/12/29 01:24:54;;;;;;;17.37;10.07;;;;;;;;;;5102017;28;20280;-81
2022/12/29 01:27:21;;;;;;;16.87;10.30;;;;;;;;;;5089802;28;20756;-81
2022/12/29 01:29:48;;;;;;;13.83;10.43;;;;;;;;;;5081437;28;20223;-81
2022/12/29 01:32:14;;;;;;;11.23;9.23;;;;;;;;;;5083818;28;20196;-81
2022/12/29 01:34:43;;;;;;;11.13;8.93;;;;;;;;;;5088599;28;20215;-81
2022/12/29 01:37:11;;;;;;;9.87;7.87;;;;;;;;;;5110424;28;20207;-81
2022/12/29 01:39:38;;;;;;;11.50;7.73;;;;;;;;;;5110389;28;20219;-81
2022/12/29 01:42:05;;;;;;;13.40;10.00;;;;;;;;;;5109444;28;20678;-81
2022/12/29 01:44:51;;;;;;;12.60;10.60;;;;;;;;;;5110778;28;20226;-82
2022/12/29 01:47:22;;;;;;;14.17;10.00;;;;;;;;;;5092383;28;20200;-81
2022/12/29 01:49:49;;;;;;;11.90;9.47;;;;;;;;;;5083173;28;20255;-81
2022/12/29 01:52:17;;;;;;;12.27;9.00;;;;;;;;;;5076814;28;20592;-81
2022/12/29 01:54:47;;;;;;;10.90;7.97;;;;;;;;;;5089879;28;20297;-81
2022/12/29 01:57:17;;;;;;;13.60;10.93;;;;;;;;;;5090092;28;20292;-82
2022/12/29 01:59:47;;;;;;;15.70;13.70;;;;;;;;;;5089307;28;20200;-81
2022/12/29 02:02:14;;;;;;;15.30;12.20;;;;;;;;;;5056296;28;20281;-81
2022/12/29 02:04:44;;;;;;;12.30;10.30;;;;;;;;;;5089162;28;20232;-81
2022/12/29 02:07:15;;;;;;;14.50;8.57;;;;;;;;;;5086388;28;20284;-81
2022/12/29 02:09:44;;;;;;;12.70;8.70;;;;;;;;;;5100324;28;20197;-80
2022/12/29 02:12:11;;;;;;;9.53;8.00;;;;;;;;;;5090080;28;20204;-81
2022/12/29 02:14:38;;;;;;;8.87;7.60;;;;;;;;;;5089447;28;20200;-81
2022/12/29 02:17:11;;;;;;;11.13;8.07;;;;;;;;;;5089622;28;20204;-80
2022/12/29 02:20:05;;;;;;;8.90;7.37;;;;;;;;;;5089800;28;20283;-81
2022/12/29 02:22:35;;;;;;;8.63;7.57;;;;;;;;;;5059648;28;20285;-81
2022/12/29 02:25:38;;;;;;;6.10;5.43;;;;;;;;;;5089290;28;20736;-81
2022/12/29 02:28:46;;;;;;;10.90;6.03;;;;;;;;;;5090929;28;20227;-81
2022/12/29 02:31:18;;;;;;;13.07;6.63;;;;;;;;;;5011156;28;20254;-81
2022/12/29 02:33:53;;;;;;;26.90;15.30;;;;;;;;;;5095867;28;20256;-81
2022/12/29 02:36:25;;;;;;;7.93;5.67;;;;;;;;;;5093021;28;20207;-81
2022/12/29 02:39:00;;;;;;;7.67;4.00;;;;;;;;;;5089162;28;20692;-81
2022/12/29 02:41:33;;;;;;;4.20;3.80;;;;;;;;;;5097183;28;20207;-81
2022/12/29 02:44:06;;;;;;;6.43;4.50;;;;;;;;;;5106409;28;20981;-81
2022/12/29 02:46:37;;;;;;;6.93;4.20;;;;;;;;;;5093075;28;20204;-81
2022/12/29 02:49:07;;;;;;;8.17;4.40;;;;;;;;;;5101495;28;20207;-81
2022/12/29 02:51:37;;;;;;;8.20;5.40;;;;;;;;;;5112587;28;20244;-81
2022/12/29 02:56:49;;;;;;;8.73;7.50;;;;;;;;;;5099638;28;20800;-81
2022/12/29 02:59:16;;;;;;;11.33;7.07;;;;;;;;;;5100617;28;20196;-80
2022/12/29 03:02:20;;;;;;;7.07;4.83;;;;;;;;;;5111199;28;20199;-81
2022/12/29 03:04:55;;;;;;;5.77;5.17;;;;;;;;;;5085398;28;20231;-81
2022/12/29 03:07:27;;;;;;;6.77;6.07;;;;;;;;;;5102281;28;20196;-81
2022/12/29 03:10:01;;;;;;;9.87;6.10;;;;;;;;;;5105698;28;20201;-81
2022/12/29 03:18:11;;;;;;;11.37;7.53;;;;;;;;;;5105563;28;20216;-81
2022/12/29 03:20:40;;;;;;;22.70;12.67;;;;;;;;;;5092519;28;20258;-81
2022/12/29 03:23:08;;;;;;;28.40;15.97;;;;;;;;;;5099545;28;20286;-81
2022/12/29 03:25:39;;;;;;;51.73;27.53;;;;;;;;;;5111057;28;20209;-81
2022/12/29 03:28:09;;;;;;;13.27;8.13;;;;;;;;;;5084173;28;20208;-81
2022/12/29 03:30:37;;;;;;;48.60;27.13;;;;;;;;;;5102413;28;20227;-81
2022/12/29 03:33:08;;;;;;;13.73;10.07;;;;;;;;;;5103357;28;20223;-81
2022/12/29 03:35:37;;;;;;;9.30;5.33;;;;;;;;;;5092173;28;20212;-81
2022/12/29 03:38:07;;;;;;;9.57;6.27;;;;;;;;;;5092268;28;20201;-81
2022/12/29 03:40:35;;;;;;;7.97;4.97;;;;;;;;;;5091784;28;20204;-81
2022/12/29 03:43:02;;;;;;;8.33;5.20;;;;;;;;;;5091610;28;20306;-81
2022/12/29 03:45:29;;;;;;;7.80;5.30;;;;;;;;;;5091558;28;20277;-81
2022/12/29 03:47:56;;;;;;;6.70;5.07;;;;;;;;;;5092008;28;20563;-81
2022/12/29 03:50:25;;;;;;;7.97;4.77;;;;;;;;;;5086846;28;20201;-81
2022/12/29 03:52:52;;;;;;;10.07;5.03;;;;;;;;;;5049364;28;20211;-81
2022/12/29 03:55:18;;;;;;;7.73;4.60;;;;;;;;;;5091038;28;20200;-81
2022/12/29 03:57:45;;;;;;;11.67;5.30;;;;;;;;;;5091479;28;20615;-81
2022/12/29 04:00:14;;;;;;;6.83;5.53;;;;;;;;;;5091211;28;20633;-81
2022/12/29 04:02:41;;;;;;;18.60;11.23;;;;;;;;;;5091559;28;20266;-81
2022/12/29 04:05:08;;;;;;;15.17;10.10;;;;;;;;;;5059743;28;20765;-81
2022/12/29 04:07:36;;;;;;;23.07;15.13;;;;;;;;;;5091471;28;20636;-81
2022/12/29 04:10:03;;;;;;;14.43;11.27;;;;;;;;;;5072543;28;20209;-81
2022/12/29 04:12:30;;;;;;;14.97;6.53;;;;;;;;;;5091648;28;20260;-81
2022/12/29 04:14:57;;;;;;;7.03;5.67;;;;;;;;;;5078223;28;20683;-81
2022/12/29 04:17:24;;;;;;;7.17;5.83;;;;;;;;;;5078107;28;20219;-81
2022/12/29 04:19:51;;;;;;;7.03;4.80;;;;;;;;;;5072878;28;20200;-81
2022/12/29 04:22:18;;;;;;;8.00;5.17;;;;;;;;;;5090708;28;20201;-81
2022/12/29 04:24:46;;;;;;;6.87;5.47;;;;;;;;;;5090905;28;20227;-81
2022/12/29 04:27:13;;;;;;;7.53;5.70;;;;;;;;;;5091060;28;20208;-81
2022/12/29 04:29:40;;;;;;;12.10;6.87;;;;;;;;;;5090995;28;20200;-81
2022/12/29 04:32:07;;;;;;;15.77;10.23;;;;;;;;;;5073031;28;20196;-81
2022/12/29 04:34:33;;;;;;;12.73;9.00;;;;;;;;;;5099587;28;20204;-81
2022/12/29 04:37:00;;;;;;;16.03;9.93;;;;;;;;;;5097035;28;20211;-81
2022/12/29 04:39:27;;;;;;;10.97;8.13;;;;;;;;;;5102562;28;20202;-82
2022/12/29 04:41:56;;;;;;;12.70;8.77;;;;;;;;;;5085568;28;20260;-81
2022/12/29 04:44:23;;;;;;;17.27;12.23;;;;;;;;;;5072955;28;20220;-80
2022/12/29 04:46:50;;;;;;;9.37;7.40;;;;;;;;;;5072906;28;20209;-82
2022/12/29 04:49:17;;;;;;;9.93;8.97;;;;;;;;;;5100422;28;20682;-82
2022/12/29 04:51:43;;;;;;;30.53;21.10;;;;;;;;;;5110133;28;20195;-81
2022/12/29 04:54:10;;;;;;;12.53;10.97;;;;;;;;;;5111040;28;20211;-82
2022/12/29 04:56:37;;;;;;;10.77;6.37;;;;;;;;;;5093587;28;20207;-82
2022/12/29 04:59:05;;;;;;;8.03;6.33;;;;;;;;;;5090668;28;20200;-82
2022/12/29 05:01:32;;;;;;;9.57;7.50;;;;;;;;;;5090326;28;20196;-82
2022/12/29 05:03:59;;;;;;;9.50;6.93;;;;;;;;;;5101741;28;20227;-82
2022/12/29 05:06:26;;;;;;;6.70;5.17;;;;;;;;;;5061628;28;20203;-82
2022/12/29 05:08:53;;;;;;;11.47;5.07;;;;;;;;;;5098780;28;20196;-82
2022/12/29 05:11:20;;;;;;;6.83;4.87;;;;;;;;;;5072748;28;20200;-82
2022/12/29 05:13:47;;;;;;;4.67;4.27;;;;;;;;;;5085715;28;20257;-82
2022/12/29 05:16:15;;;;;;;8.90;5.93;;;;;;;;;;5095137;28;20204;-82
2022/12/29 05:18:42;;;;;;;16.17;11.70;;;;;;;;;;5089139;28;20265;-83
2022/12/29 05:21:09;;;;;;;15.77;10.50;;;;;;;;;;5090254;28;20253;-81
2022/12/29 05:23:36;;;;;;;14.63;10.60;;;;;;;;;;5090575;28;20216;-82
2022/12/29 05:26:03;;;;;;;15.97;11.37;;;;;;;;;;5090194;28;20281;-83
2022/12/29 05:28:30;;;;;;;11.57;9.53;;;;;;;;;;5072157;28;20204;-82
2022/12/29 05:30:57;;;;;;;15.23;9.23;;;;;;;;;;5102288;28;20210;-82
2022/12/29 05:33:26;;;;;;;12.30;8.90;;;;;;;;;;5078684;28;20200;-83
2022/12/29 05:35:52;;;;;;;14.47;10.27;;;;;;;;;;5070105;28;20203;-82
2022/12/29 05:38:19;;;;;;;18.87;14.60;;;;;;;;;;5079346;28;20208;-82
2022/12/29 05:40:46;;;;;;;15.40;12.23;;;;;;;;;;5090283;28;20242;-82
2022/12/29 05:43:13;;;;;;;12.13;8.73;;;;;;;;;;5052195;28;20205;-82
2022/12/29 05:45:40;;;;;;;10.13;8.63;;;;;;;;;;5067081;28;20257;-79
2022/12/29 05:48:07;;;;;;;10.83;8.00;;;;;;;;;;5109827;28;20214;-80
2022/12/29 05:50:35;;;;;;;8.83;5.73;;;;;;;;;;5109640;28;20249;-80
2022/12/29 05:53:02;;;;;;;8.70;7.07;;;;;;;;;;5102891;28;20201;-80
2022/12/29 05:55:29;;;;;;;7.93;7.00;;;;;;;;;;5103965;28;20231;-79
2022/12/29 05:57:56;;;;;;;8.03;6.10;;;;;;;;;;5110600;28;20294;-80
2022/12/29 06:00:23;;;;;;;7.80;5.97;;;;;;;;;;5108309;28;20604;-82
2022/12/29 06:02:50;;;;;;;9.57;5.53;;;;;;;;;;5089894;28;20671;-80
2022/12/29 06:05:17;;;;;;;8.30;5.73;;;;;;;;;;5093658;28;20619;-80
2022/12/29 06:07:45;;;;;;;6.73;5.73;;;;;;;;;;5093597;28;20207;-80
2022/12/29 06:10:12;;;;;;;8.63;6.67;;;;;;;;;;5093291;28;20197;-80
2022/12/29 06:12:39;;;;;;;8.27;6.13;;;;;;;;;;5093335;28;20212;-80
2022/12/29 06:15:07;;;;;;;11.23;8.03;;;;;;;;;;5092723;28;20625;-80
2022/12/29 06:17:34;;;;;;;8.57;6.50;;;;;;;;;;5093132;28;20290;-80
2022/12/29 06:20:01;;;;;;;8.20;6.33;;;;;;;;;;5093526;28;20434;-80
2022/12/29 06:22:28;;;;;;;14.20;8.47;;;;;;;;;;5092971;28;20629;-79
2022/12/29 06:24:56;;;;;;;39.13;24.53;;;;;;;;;;5092924;28;20782;-80
2022/12/29 06:27:23;;;;;;;79.83;50.93;;;;;;;;;;5093933;28;20209;-80
2022/12/29 06:29:49;;;;;;;64.63;41.87;;;;;;;;;;5111308;28;20192;-80
2022/12/29 06:32:16;;;;;;;56.10;37.83;;;;;;;;;;5097769;28;20294;-80
2022/12/29 06:34:44;;;;;;;28.90;21.33;;;;;;;;;;5089542;28;20200;-81
2022/12/29 06:37:11;;;;;;;20.53;15.87;;;;;;;;;;5086775;28;20752;-81
2022/12/29 06:39:38;;;;;;;15.90;12.00;;;;;;;;;;5080742;28;20227;-80
2022/12/29 06:42:06;;;;;;;16.47;10.70;;;;;;;;;;5093541;28;20211;-80
2022/12/29 06:44:33;;;;;;;12.60;8.70;;;;;;;;;;5102341;28;20228;-81
2022/12/29 06:47:00;;;;;;;13.93;7.97;;;;;;;;;;5079659;28;20197;-80
2022/12/29 06:49:26;;;;;;;86.97;53.57;;;;;;;;;;5103466;28;20207;-80
2022/12/29 06:51:53;;;;;;;35.37;24.00;;;;;;;;;;5103890;28;20683;-80
2022/12/29 06:54:20;;;;;;;27.57;16.80;;;;;;;;;;5092899;28;20211;-79
2022/12/29 06:56:47;;;;;;;19.20;14.37;;;;;;;;;;5091328;28;20196;-80
2022/12/29 06:59:15;;;;;;;20.90;14.33;;;;;;;;;;5092923;28;20208;-79
2022/12/29 07:01:42;;;;;;;22.80;17.33;;;;;;;;;;5095907;28;20199;-80
2022/12/29 07:04:09;;;;;;;37.13;21.97;;;;;;;;;;5090661;28;20308;-80
2022/12/29 07:06:36;;;;;;;35.33;24.03;;;;;;;;;;5102720;28;20223;-82
2022/12/29 07:09:03;;;;;;;37.27;26.50;;;;;;;;;;5107227;28;20288;-80
2022/12/29 07:11:30;;;;;;;27.83;19.93;;;;;;;;;;5110834;28;20199;-79
2022/12/29 07:13:57;;;;;;;30.47;22.83;;;;;;;;;;5108441;28;20200;-79
2022/12/29 07:16:25;;;;;;;21.00;17.50;;;;;;;;;;5111448;28;20733;-79
2022/12/29 07:18:52;;;;;;;28.13;21.73;;;;;;;;;;5113056;28;20219;-78
2022/12/29 07:21:19;;;;;;;47.00;30.07;;;;;;;;;;5104454;28;20258;-79
2022/12/29 07:23:46;;;;;;;44.00;30.40;;;;;;;;;;5092508;28;20201;-79
2022/12/29 07:26:14;;;;;;;29.77;20.20;;;;;;;;;;5100503;28;20232;-79
2022/12/29 07:28:43;;;;;;;17.17;12.77;;;;;;;;;;5094379;28;20203;-79
2022/12/29 07:31:14;;;;;;;13.10;11.03;;;;;;;;;;5101672;28;20219;-79
2022/12/29 07:33:43;;;;;;;11.60;9.70;;;;;;;;;;5105173;28;20203;-78
2022/12/29 07:36:10;;;;;;;18.43;14.07;;;;;;;;;;5098251;28;20208;-77
2022/12/29 07:38:36;;;;;;;11.83;9.33;;;;;;;;;;5089670;28;20685;-78
2022/12/29 07:41:03;;;;;;;13.17;10.90;;;;;;;;;;5105581;28;20203;-80
2022/12/29 07:43:30;;;;;;;11.83;10.30;;;;;;;;;;5111725;28;20595;-80
2022/12/29 07:45:57;;;;;;;20.83;17.80;;;;;;;;;;5112013;28;20227;-78
2022/12/29 07:48:24;;;;;;;17.40;13.83;;;;;;;;;;5112128;28;20203;-78
2022/12/29 07:50:53;;;;;;;15.53;13.77;;;;;;;;;;5110822;28;20237;-80
2022/12/29 07:53:20;;;;;;;16.77;13.27;;;;;;;;;;5112083;28;20215;-79
2022/12/29 07:55:47;;;;;;;16.33;14.63;;;;;;;;;;5111905;28;20256;-79
2022/12/29 07:58:13;;;;;;;15.90;11.13;;;;;;;;;;5100177;28;20200;-83
2022/12/29 08:00:41;;;;;;;13.27;9.40;;;;;;;;;;5083992;28;20211;-79
2022/12/29 08:03:07;;;;;;;13.87;8.07;;;;;;;;;;5091779;28;20258;-79
2022/12/29 08:05:34;;;;;;;9.47;6.93;;;;;;;;;;5106659;28;20219;-79
2022/12/29 08:08:03;;;;;;;10.30;7.10;;;;;;;;;;5094865;28;20207;-78
2022/12/29 08:10:29;;;;;;;8.50;7.60;;;;;;;;;;5091075;28;20212;-79
2022/12/29 08:12:56;;;;;;;9.33;6.03;;;;;;;;;;5091474;28;20215;-80
2022/12/29 08:15:23;;;;;;;7.23;6.23;;;;;;;;;;5091207;28;20219;-78
2022/12/29 08:17:50;;;;;;;8.67;6.03;;;;;;;;;;5091079;28;20751;-78
2022/12/29 08:20:17;;;;;;;6.43;5.80;;;;;;;;;;5090091;28;20196;-79
2022/12/29 08:22:43;;;;;;;6.90;6.23;;;;;;;;;;5094833;28;20192;-78
2022/12/29 08:25:12;;;;;;;8.47;6.47;;;;;;;;;;5102206;28;20224;-79
2022/12/29 08:27:38;;;;;;;7.80;6.90;;;;;;;;;;5111492;28;20200;-77
2022/12/29 08:30:06;;;;;;;7.20;6.23;;;;;;;;;;5111208;28;20200;-77
2022/12/29 08:32:33;;;;;;;13.43;10.50;;;;;;;;;;5111453;28;20196;-79
2022/12/29 08:35:00;;;;;;;7.37;6.10;;;;;;;;;;5110628;28;20574;-77
2022/12/29 08:37:29;;;;;;;7.10;6.40;;;;;;;;;;5105417;28;20207;-76
2022/12/29 08:39:57;;;;;;;8.13;7.17;;;;;;;;;;5090944;28;20207;-76
2022/12/29 08:42:30;;;;;;;9.87;6.80;;;;;;;;;;5110358;28;20227;-76
2022/12/29 08:44:57;;;;;;;6.27;5.67;;;;;;;;;;5110693;28;20578;-76
2022/12/29 08:47:24;;;;;;;6.20;5.17;;;;;;;;;;5110229;28;20773;-76
2022/12/29 08:49:51;;;;;;;9.63;5.90;;;;;;;;;;5097435;28;20294;-78
2022/12/29 08:52:18;;;;;;;5.57;5.07;;;;;;;;;;5092356;28;20204;-77
2022/12/29 08:54:45;;;;;;;5.23;4.73;;;;;;;;;;5089783;28;20200;-76
2022/12/29 08:57:14;;;;;;;6.23;5.63;;;;;;;;;;5075822;28;20196;-76
2022/12/29 08:59:44;;;;;;;6.90;6.20;;;;;;;;;;5095489;28;20203;-76
2022/12/29 09:02:12;;;;;;;6.83;5.30;;;;;;;;;;5075752;28;20572;-80
2022/12/29 09:04:39;;;;;;;8.63;5.87;;;;;;;;;;5054128;28;20256;-76
2022/12/29 09:07:06;;;;;;;6.77;5.07;;;;;;;;;;5049770;28;20225;-76
2022/12/29 09:09:34;;;;;;;6.90;4.80;;;;;;;;;;5049798;28;20731;-76
2022/12/29 09:12:01;;;;;;;5.83;5.23;;;;;;;;;;5050100;28;20743;-75
2022/12/29 09:14:28;;;;;;;5.77;5.20;;;;;;;;;;5049433;28;20232;-76
2022/12/29 09:19:40;;;;;;;6.40;5.53;;;;;;;;;;5049992;28;20328;-76
2022/12/29 09:22:07;;;;;;;6.53;5.03;;;;;;;;;;5050062;28;21176;-75
2022/12/29 09:24:34;;;;;;;8.67;6.97;;;;;;;;;;5049491;28;20208;-79
2022/12/29 09:27:01;;;;;;;8.97;5.80;;;;;;;;;;5049182;28;20232;-76
2022/12/29 09:29:27;;;;;;;5.00;4.30;;;;;;;;;;5048715;28;20263;-79
2022/12/29 09:31:56;;;;;;;6.03;5.30;;;;;;;;;;5050367;28;20206;-76
2022/12/29 09:34:22;;;;;;;5.40;4.90;;;;;;;;;;5049668;28;20198;-77
2022/12/29 09:36:49;;;;;;;6.27;5.40;;;;;;;;;;5050390;28;20202;-77
2022/12/29 09:39:16;;;;;;;6.10;5.33;;;;;;;;;;5053698;28;20202;-78
2022/12/29 09:41:48;;;;;;;5.43;4.93;;;;;;;;;;5053677;28;20213;-78
2022/12/29 09:44:22;;;;;;;5.83;5.33;;;;;;;;;;5053776;28;20642;-77
2022/12/29 09:46:51;;;;;;;6.03;4.53;;;;;;;;;;5053246;28;20218;-77
2022/12/29 09:49:24;;;;;;;5.47;4.73;;;;;;;;;;5054140;28;20209;-77
2022/12/29 09:51:54;;;;;;;4.93;4.53;;;;;;;;;;5053221;28;20190;-77
2022/12/29 09:54:25;;;;;;;4.37;3.97;;;;;;;;;;5053761;28;20202;-77
2022/12/29 09:56:53;;;;;;;5.23;4.70;;;;;;;;;;5053156;28;20256;-77
2022/12/29 09:59:21;;;;;;;7.77;5.17;;;;;;;;;;5053217;28;20738;-77
2022/12/29 10:01:53;;;;;;;5.03;4.53;;;;;;;;;;5053155;28;20213;-77
2022/12/29 10:04:21;;;;;;;6.43;5.73;;;;;;;;;;5076309;28;20691;-79
2022/12/29 10:06:54;;;;;;;10.27;5.83;;;;;;;;;;5093333;28;20281;-77
2022/12/29 10:09:26;;;;;;;6.13;5.53;;;;;;;;;;5093889;28;20286;-76
2022/12/29 10:12:04;;;;;;;22.33;14.83;;;;;;;;;;5093842;28;20200;-77
2022/12/29 10:14:42;;;;;;;17.77;9.97;;;;;;;;;;5093578;28;20200;-77
2022/12/29 10:17:19;;;;;;;12.03;10.87;;;;;;;;;;5093584;28;20636;-77
2022/12/29 10:20:01;;;;;;;13.17;10.37;;;;;;;;;;5093571;28;20200;-78
2022/12/29 10:22:37;;;;;;;8.43;6.57;;;;;;;;;;5093256;28;20207;-76
2022/12/29 10:25:13;;;;;;;12.93;9.37;;;;;;;;;;5093206;28;20663;-77
2022/12/29 10:27:40;;;;;;;18.07;12.30;;;;;;;;;;5093205;28;20220;-76
2022/12/29 10:30:13;;;;;;;19.73;13.90;;;;;;;;;;5091469;28;20679;-77
2022/12/29 10:32:42;;;;;;;15.27;8.00;;;;;;;;;;5099373;28;20216;-76
2022/12/29 10:35:15;;;;;;;8.13;7.33;;;;;;;;;;5113312;28;20203;-77
2022/12/29 10:37:46;;;;;;;10.80;7.83;;;;;;;;;;5080766;28;20200;-80
2022/12/29 10:40:19;;;;;;;16.70;12.83;;;;;;;;;;5094124;28;20205;-76
2022/12/29 10:42:48;;;;;;;10.67;8.70;;;;;;;;;;5105384;28;20199;-77
2022/12/29 10:45:16;;;;;;;11.23;7.40;;;;;;;;;;5103825;28;20199;-77
2022/12/29 10:47:54;;;;;;;10.07;7.87;;;;;;;;;;5096606;28;20231;-77
2022/12/29 10:50:23;;;;;;;8.50;7.70;;;;;;;;;;5108504;28;20673;-76
2022/12/29 10:52:50;;;;;;;7.23;5.20;;;;;;;;;;5092870;28;20211;-78
2022/12/29 10:55:20;;;;;;;9.33;5.90;;;;;;;;;;5106235;28;20681;-77
2022/12/29 10:57:49;;;;;;;9.27;7.27;;;;;;;;;;5106843;28;20207;-77
2022/12/29 11:00:20;;;;;;;8.03;5.63;;;;;;;;;;5094396;28;20320;-77
2022/12/29 11:03:21;;;;;;;9.73;6.87;;;;;;;;;;5102547;28;20203;-77
2022/12/29 11:05:53;;;;;;;6.53;5.80;;;;;;;;;;5073704;28;20200;-77
2022/12/29 11:08:21;;;;;;;12.73;9.83;;;;;;;;;;5105380;28;20203;-77
2022/12/29 11:10:59;;;;;;;8.03;5.80;;;;;;;;;;5096424;28;20623;-80
2022/12/29 11:13:28;;;;;;;6.13;5.53;;;;;;;;;;5095876;28;20210;-77
2022/12/29 11:15:54;;;;;;;13.67;8.83;;;;;;;;;;5095977;28;20209;-77
2022/12/29 11:18:24;;;;;;;9.00;6.40;;;;;;;;;;5111860;28;20199;-77
2022/12/29 11:20:54;;;;;;;8.67;7.40;;;;;;;;;;5111152;28;20239;-77
2022/12/29 11:23:24;;;;;;;7.37;5.80;;;;;;;;;;5105268;28;20325;-77
2022/12/29 11:26:07;;;;;;;7.53;5.93;;;;;;;;;;5107871;28;20202;-77
2022/12/29 11:28:34;;;;;;;9.67;5.93;;;;;;;;;;5088663;28;20664;-76
2022/12/29 11:31:05;;;;;;;10.83;7.93;;;;;;;;;;5084456;28;20204;-77
2022/12/29 11:33:32;;;;;;;13.17;8.70;;;;;;;;;;5091639;28;20206;-77
2022/12/29 11:36:05;;;;;;;8.03;7.20;;;;;;;;;;5095110;28;20254;-78
2022/12/29 11:38:35;;;;;;;8.73;6.07;;;;;;;;;;5100647;28;20232;-77
2022/12/29 11:41:03;;;;;;;7.53;6.77;;;;;;;;;;5099873;28;20203;-77
2022/12/29 11:43:33;;;;;;;15.90;12.07;;;;;;;;;;5091824;28;20207;-77
2022/12/29 11:46:03;;;;;;;20.60;15.83;;;;;;;;;;5093935;28;20204;-77
2022/12/29 11:48:32;;;;;;;8.30;7.50;;;;;;;;;;5111901;28;20677;-79
2022/12/29 11:51:01;;;;;;;9.47;7.77;;;;;;;;;;5111476;28;20218;-77
2022/12/29 11:53:31;;;;;;;6.87;5.70;;;;;;;;;;5112109;28;20200;-77
2022/12/29 11:55:59;;;;;;;7.00;5.63;;;;;;;;;;5111880;28;20205;-77
2022/12/29 11:58:32;;;;;;;9.10;6.17;;;;;;;;;;5112214;28;20202;-77
2022/12/29 12:01:02;;;;;;;12.40;7.70;;;;;;;;;;5110583;28;20222;-78
2022/12/29 12:03:31;;;;;;;23.80;21.43;;;;;;;;;;5110931;28;20223;-77
2022/12/29 12:06:01;;;;;;;29.90;27.27;;;;;;;;;;5112087;28;20272;-77
2022/12/29 12:08:34;;;;;;;13.40;12.10;;;;;;;;;;5112141;28;20277;-77
2022/12/29 12:11:08;;;;;;;10.87;9.83;;;;;;;;;;5096381;28;20200;-77
2022/12/29 12:13:39;;;;;;;12.57;10.33;;;;;;;;;;5111269;28;20208;-77
2022/12/29 12:16:09;;;;;;;13.70;10.53;;;;;;;;;;5111315;28;20198;-77
2022/12/29 12:18:41;;;;;;;30.60;20.70;;;;;;;;;;5111764;28;20208;-77
2022/12/29 12:21:15;;;;;;;25.03;16.57;;;;;;;;;;5109473;28;20209;-78
2022/12/29 12:24:05;;;;;;;19.03;13.63;;;;;;;;;;5088823;28;20316;-77
2022/12/29 12:26:35;;;;;;;33.37;21.20;;;;;;;;;;5093621;28;20695;-77
2022/12/29 12:29:11;;;;;;;14.40;9.80;;;;;;;;;;5111639;28;20198;-77
2022/12/29 12:31:45;;;;;;;11.20;9.10;;;;;;;;;;5094923;28;20626;-77
2022/12/29 12:34:17;;;;;;;10.07;7.50;;;;;;;;;;5091595;28;20253;-77
2022/12/29 12:37:05;;;;;;;8.17;6.30;;;;;;;;;;5090414;28;20230;-77
2022/12/29 12:39:39;;;;;;;11.57;8.20;;;;;;;;;;5091026;28;20262;-77
2022/12/29 12:42:19;;;;;;;9.07;7.17;;;;;;;;;;5090507;28;20671;-77
2022/12/29 12:44:58;;;;;;;14.60;11.03;;;;;;;;;;5089807;28;20207;-77
2022/12/29 12:47:36;;;;;;;21.13;14.80;;;;;;;;;;5105107;28;20226;-78
2022/12/29 12:50:14;;;;;;;12.40;10.40;;;;;;;;;;5111455;28;20202;-77
2022/12/29 12:53:01;;;;;;;9.03;7.77;;;;;;;;;;5090611;28;20751;-77
2022/12/29 12:56:02;;;;;;;12.67;10.53;;;;;;;;;;5090655;28;20229;-77
2022/12/29 12:58:35;;;;;;;12.00;9.53;;;;;;;;;;5031869;28;20298;-77
2022/12/29 13:01:13;;;;;;;9.70;8.07;;;;;;;;;;5079255;28;20204;-77
2022/12/29 13:03:48;;;;;;;11.27;8.63;;;;;;;;;;5090118;28;20229;-77
2022/12/29 13:06:22;;;;;;;10.63;7.03;;;;;;;;;;5086931;28;20207;-77
2022/12/29 13:09:23;;;;;;;17.50;11.03;;;;;;;;;;5088720;28;20656;-77
2022/12/29 13:12:02;;;;;;;10.50;8.50;;;;;;;;;;5046072;28;20207;-78
2022/12/29 13:14:37;;;;;;;8.00;7.20;;;;;;;;;;5090610;28;20204;-77
2022/12/29 13:17:09;;;;;;;11.13;9.07;;;;;;;;;;5090479;28;20620;-74
2022/12/29 13:19:42;;;;;;;14.13;8.97;;;;;;;;;;5076971;28;20669;-75
2022/12/29 13:22:13;;;;;;;13.53;10.23;;;;;;;;;;5090334;28;20283;-75
2022/12/29 13:24:52;;;;;;;12.93;10.00;;;;;;;;;;5089299;28;20239;-75
2022/12/29 13:27:25;;;;;;;10.70;9.03;;;;;;;;;;5090588;28;20224;-75
2022/12/29 13:29:59;;;;;;;15.07;11.13;;;;;;;;;;5089823;28;20196;-77
2022/12/29 13:32:36;;;;;;;20.43;16.53;;;;;;;;;;5089749;28;20203;-76
2022/12/29 13:35:14;;;;;;;50.80;30.30;;;;;;;;;;5089579;28;20582;-75
2022/12/29 13:37:50;;;;;;;29.50;18.73;;;;;;;;;;5090219;28;20296;-76
2022/12/29 13:40:21;;;;;;;22.30;16.47;;;;;;;;;;5090380;28;20196;-76
2022/12/29 13:42:48;;;;;;;16.23;14.30;;;;;;;;;;5089813;28;20565;-76
2022/12/29 13:45:18;;;;;;;19.67;14.50;;;;;;;;;;5084626;28;20748;-76
2022/12/29 13:47:47;;;;;;;17.27;14.33;;;;;;;;;;5110636;28;20235;-76
2022/12/29 13:50:17;;;;;;;20.30;16.63;;;;;;;;;;5110021;28;20203;-77
2022/12/29 13:52:49;;;;;;;19.13;15.87;;;;;;;;;;5107490;28;20196;-77
2022/12/29 13:55:26;;;;;;;10.87;8.87;;;;;;;;;;5089823;28;20652;-77
2022/12/29 13:57:58;;;;;;;15.30;12.33;;;;;;;;;;5093875;28;20195;-80
2022/12/29 14:00:30;;;;;;;64.83;34.67;;;;;;;;;;5084903;28;20209;-77
2022/12/29 14:03:18;;;;;;;26.70;17.27;;;;;;;;;;5109920;28;20196;-77
2022/12/29 14:05:46;;;;;;;37.80;25.07;;;;;;;;;;5109983;28;20207;-77
2022/12/29 14:08:17;;;;;;;30.67;23.13;;;;;;;;;;5105272;28;20224;-79
2022/12/29 14:10:49;;;;;;;12.50;10.40;;;;;;;;;;5089696;28;20203;-77
2022/12/29 14:13:18;;;;;;;19.53;12.77;;;;;;;;;;5090114;28;20250;-77
2022/12/29 14:15:46;;;;;;;16.67;14.57;;;;;;;;;;5089353;28;20219;-77
2022/12/29 14:18:16;;;;;;;14.90;12.97;;;;;;;;;;5088589;28;20204;-77
2022/12/29 14:20:51;;;;;;;19.10;16.80;;;;;;;;;;5089805;28;20209;-77
2022/12/29 14:23:26;;;;;;;19.27;15.97;;;;;;;;;;5089135;28;20260;-77
2022/12/29 14:26:00;;;;;;;18.80;16.10;;;;;;;;;;5086217;28;20197;-80
2022/12/29 14:28:29;;;;;;;14.97;11.67;;;;;;;;;;5089793;28;20656;-77
2022/12/29 14:30:56;;;;;;;17.13;13.00;;;;;;;;;;5088914;28;20298;-77
2022/12/29 14:33:26;;;;;;;15.63;11.47;;;;;;;;;;5082954;28;20201;-79
2022/12/29 14:35:54;;;;;;;21.30;16.27;;;;;;;;;;5093157;28;20200;-80
2022/12/29 14:38:23;;;;;;;26.03;16.63;;;;;;;;;;5092149;28;20570;-77
2022/12/29 14:40:51;;;;;;;39.83;28.67;;;;;;;;;;5090500;28;20204;-77
2022/12/29 14:43:25;;;;;;;26.50;22.07;;;;;;;;;;5081760;28;20234;-77
2022/12/29 14:45:59;;;;;;;17.27;14.37;;;;;;;;;;5091783;28;20281;-77
2022/12/29 14:48:33;;;;;;;14.23;12.17;;;;;;;;;;5102877;28;20306;-78
2022/12/29 14:51:00;;;;;;;18.27;14.93;;;;;;;;;;5094448;28;20223;-77
2022/12/29 14:53:44;;;;;;;20.37;13.97;;;;;;;;;;5102812;28;20200;-77
2022/12/29 14:56:12;;;;;;;62.43;40.87;;;;;;;;;;5096424;28;20207;-77
2022/12/29 14:58:48;;;;;;;37.50;22.10;;;;;;;;;;5092908;28;20204;-78
2022/12/29 15:01:21;;;;;;;31.73;20.27;;;;;;;;;;5092102;28;20227;-77
2022/12/29 15:03:50;;;;;;;41.97;26.03;;;;;;;;;;5088731;28;20321;-77
2022/12/29 15:06:21;;;;;;;29.37;19.77;;;;;;;;;;5092061;28;20202;-77
2022/12/29 15:08:52;;;;;;;29.67;21.50;;;;;;;;;;5092672;28;20301;-77
2022/12/29 15:11:20;;;;;;;16.13;12.97;;;;;;;;;;5092146;28;20224;-79
2022/12/29 15:13:49;;;;;;;30.20;19.80;;;;;;;;;;5085347;28;20274;-77
2022/12/29 15:16:25;;;;;;;34.00;22.83;;;;;;;;;;5088691;28;20302;-77
2022/12/29 15:18:52;;;;;;;77.00;41.23;;;;;;;;;;5101304;28;20207;-77
2022/12/29 15:21:22;;;;;;;56.13;34.00;;;;;;;;;;5111624;28;20206;-77
2022/12/29 15:23:49;;;;;;;28.87;19.73;;;;;;;;;;5106887;28;20196;-77